createdAt,value
2023-01-08T00:00:09.299Z,5.54
2023-01-08T00:01:10.037Z,5.55
2023-01-08T00:02:11.488Z,5.51
2023-01-08T00:03:12.124Z,5.47
2023-01-08T00:04:12.922Z,5.46
2023-01-08T00:05:13.163Z,5.55
2023-01-08T00:06:12.823Z,5.49
2023-01-08T00:07:13.901Z,5.51
2023-01-08T00:08:13.816Z,5.52
2023-01-08T00:09:14.741Z,5.55
2023-01-08T00:10:15.110Z,5.54
2023-01-08T00:11:16.072Z,5.54
2023-01-08T00:12:16.756Z,5.58
2023-01-08T00:13:16.395Z,5.54
2023-01-08T00:14:17.411Z,5.56
2023-01-08T00:15:17.302Z,5.56
2023-01-08T00:16:18.736Z,5.52
2023-01-08T00:17:19.675Z,5.58
2023-01-08T00:18:19.595Z,5.54
2023-01-08T00:19:20.832Z,5.51
2023-01-08T00:20:21.069Z,5.52
2023-01-08T00:21:21.574Z,5.56
2023-01-08T00:22:21.590Z,5.52
2023-01-08T00:23:22.504Z,5.43
2023-01-08T00:24:22.723Z,5.36
2023-01-08T00:25:23.852Z,5.4
2023-01-08T00:26:24.487Z,5.36
2023-01-08T00:27:25.125Z,5.41
2023-01-08T00:28:26.054Z,5.31
2023-01-08T00:29:27.502Z,5.31
2023-01-08T00:30:28.048Z,5.25
2023-01-08T00:31:28.212Z,5.29
2023-01-08T00:32:28.842Z,5.25
2023-01-08T00:33:28.761Z,5.28
2023-01-08T00:34:29.421Z,5.2
2023-01-08T00:35:29.860Z,5.15
2023-01-08T00:36:30.794Z,5.25
2023-01-08T00:37:31.157Z,5.29
2023-01-08T00:38:31.826Z,5.25
2023-01-08T00:39:32.756Z,5.31
2023-01-08T00:40:33.498Z,5.31
2023-01-08T00:41:33.713Z,5.41
2023-01-08T00:42:34.659Z,5.37
2023-01-08T00:43:35.607Z,5.37
2023-01-08T00:44:36.091Z,5.44
2023-01-08T00:45:36.729Z,5.44
2023-01-08T00:46:36.862Z,5.43
2023-01-08T00:47:38.309Z,5.44
2023-01-08T00:48:38.244Z,5.52
2023-01-08T00:49:38.451Z,5.51
2023-01-08T00:50:39.365Z,5.47
2023-01-08T00:51:40.003Z,5.44
2023-01-08T00:52:41.520Z,5.52
2023-01-08T00:53:42.181Z,5.49
2023-01-08T00:54:43.410Z,5.49
2023-01-08T00:55:43.771Z,5.41
2023-01-08T00:56:43.964Z,5.46
2023-01-08T00:57:44.883Z,5.51
2023-01-08T00:58:45.612Z,5.47
2023-01-08T00:59:46.546Z,5.44
2023-01-08T01:00:47.416Z,5.44
2023-01-08T01:01:47.900Z,5.47
2023-01-08T01:02:48.781Z,5.44
2023-01-08T01:03:48.563Z,5.44
2023-01-08T01:04:48.639Z,5.52
2023-01-08T01:05:49.926Z,5.47
2023-01-08T01:06:50.138Z,5.51
2023-01-08T01:07:51.479Z,5.47
2023-01-08T01:08:51.448Z,5.55
2023-01-08T01:09:52.091Z,5.47
2023-01-08T01:10:52.712Z,5.49
2023-01-08T01:11:52.660Z,5.49
2023-01-08T01:12:53.152Z,5.41
2023-01-08T01:13:54.166Z,5.46
2023-01-08T01:14:54.487Z,5.47
2023-01-08T01:15:55.227Z,5.46
2023-01-08T01:16:55.753Z,5.51
2023-01-08T01:17:56.050Z,5.47
2023-01-08T01:18:56.633Z,5.49
2023-01-08T01:19:56.866Z,5.51
2023-01-08T01:20:57.184Z,5.41
2023-01-08T01:21:57.396Z,5.41
2023-01-08T01:22:57.734Z,5.37
2023-01-08T01:23:58.692Z,5.23
2023-01-08T01:24:59.622Z,5.23
2023-01-08T01:25:59.617Z,5.18
2023-01-08T01:27:00.833Z,5.23
2023-01-08T01:28:02.060Z,5.13
2023-01-08T01:29:02.422Z,5.18
2023-01-08T01:30:03.137Z,5.13
2023-01-08T01:31:04.074Z,5.12
2023-01-08T01:32:04.217Z,5.08
2023-01-08T01:33:05.673Z,5.15
2023-01-08T01:34:05.905Z,5.18
2023-01-08T01:35:06.115Z,5.15
2023-01-08T01:36:06.407Z,5.22
2023-01-08T01:37:07.330Z,5.2
2023-01-08T01:38:07.535Z,5.16
2023-01-08T01:39:08.191Z,5.19
2023-01-08T01:40:08.684Z,5.22
2023-01-08T01:41:08.736Z,5.2
2023-01-08T01:42:08.977Z,5.33
2023-01-08T01:43:09.901Z,5.22
2023-01-08T01:44:10.392Z,5.22
2023-01-08T01:45:11.001Z,5.33
2023-01-08T01:46:12.023Z,5.29
2023-01-08T01:47:12.040Z,5.29
2023-01-08T01:48:12.871Z,5.25
2023-01-08T01:49:13.074Z,5.28
2023-01-08T01:50:13.568Z,5.36
2023-01-08T01:51:14.082Z,5.23
2023-01-08T01:52:14.591Z,5.2
2023-01-08T01:53:14.913Z,5.31
2023-01-08T01:54:14.878Z,5.29
2023-01-08T01:55:15.256Z,5.31
2023-01-08T01:56:15.638Z,5.28
2023-01-08T01:57:16.549Z,5.29
2023-01-08T01:58:17.184Z,5.33
2023-01-08T01:59:17.729Z,5.25
2023-01-08T02:00:18.844Z,5.33
2023-01-08T02:01:19.632Z,5.33
2023-01-08T02:02:23.522Z,5.4
2023-01-08T02:03:21.071Z,5.28
2023-01-08T02:04:21.103Z,5.31
2023-01-08T02:05:22.065Z,5.25
2023-01-08T02:06:23.069Z,5.36
2023-01-08T02:07:23.020Z,5.28
2023-01-08T02:08:24.065Z,5.26
2023-01-08T02:09:24.716Z,5.25
2023-01-08T02:10:25.633Z,5.26
2023-01-08T02:11:26.707Z,5.33
2023-01-08T02:12:26.911Z,5.26
2023-01-08T02:13:27.395Z,5.29
2023-01-08T02:14:27.592Z,5.28
2023-01-08T02:15:28.272Z,5.29
2023-01-08T02:16:29.326Z,5.31
2023-01-08T02:17:29.340Z,5.25
2023-01-08T02:18:30.527Z,5.28
2023-01-08T02:19:30.736Z,5.29
2023-01-08T02:20:31.225Z,5.23
2023-01-08T02:21:31.409Z,5.33
2023-01-08T02:22:31.944Z,5.29
2023-01-08T02:23:31.968Z,5.29
2023-01-08T02:24:33.203Z,5.29
2023-01-08T02:25:34.117Z,5.29
2023-01-08T02:26:34.259Z,5.25
2023-01-08T02:27:35.758Z,5.29
2023-01-08T02:28:35.659Z,5.28
2023-01-08T02:29:36.584Z,5.33
2023-01-08T02:30:38.191Z,5.37
2023-01-08T02:31:38.560Z,5.38
2023-01-08T02:32:39.183Z,5.38
2023-01-08T02:33:40.756Z,5.41
2023-01-08T02:34:41.231Z,5.38
2023-01-08T02:35:41.889Z,5.44
2023-01-08T02:36:42.675Z,5.46
2023-01-08T02:37:43.165Z,5.41
2023-01-08T02:38:43.486Z,5.47
2023-01-08T02:39:43.976Z,5.41
2023-01-08T02:40:44.607Z,5.51
2023-01-08T02:41:45.942Z,5.47
2023-01-08T02:42:45.868Z,5.46
2023-01-08T02:43:46.126Z,5.46
2023-01-08T02:44:47.392Z,5.43
2023-01-08T02:45:47.496Z,5.4
2023-01-08T02:46:48.410Z,5.46
2023-01-08T02:47:48.911Z,5.41
2023-01-08T02:48:49.464Z,5.4
2023-01-08T02:49:49.708Z,5.44
2023-01-08T02:50:50.106Z,5.34
2023-01-08T02:51:50.803Z,5.33
2023-01-08T02:52:52.031Z,5.36
2023-01-08T02:53:52.331Z,5.31
2023-01-08T02:54:52.984Z,5.28
2023-01-08T02:55:53.626Z,5.2
2023-01-08T02:56:54.579Z,5.16
2023-01-08T02:57:54.794Z,5.12
2023-01-08T02:58:55.716Z,5.15
2023-01-08T02:59:56.919Z,5.07
2023-01-08T03:00:57.080Z,5
2023-01-08T03:01:57.597Z,5
2023-01-08T03:02:58.023Z,5.02
2023-01-08T03:03:59.363Z,5.02
2023-01-08T03:05:00.000Z,5
2023-01-08T03:05:59.644Z,4.9
2023-01-08T03:07:00.931Z,5.02
2023-01-08T03:08:01.563Z,4.98
2023-01-08T03:09:02.880Z,5.02
2023-01-08T03:10:02.858Z,5
2023-01-08T03:11:04.100Z,4.98
2023-01-08T03:12:04.418Z,5.02
2023-01-08T03:13:05.049Z,4.98
2023-01-08T03:14:06.240Z,4.98
2023-01-08T03:15:06.164Z,4.98
2023-01-08T03:16:07.204Z,4.97
2023-01-08T03:17:07.894Z,4.97
2023-01-08T03:18:07.850Z,5
2023-01-08T03:19:09.006Z,5.01
2023-01-08T03:20:09.957Z,5
2023-01-08T03:21:09.899Z,5
2023-01-08T03:22:10.869Z,5.02
2023-01-08T03:23:11.233Z,5
2023-01-08T03:24:12.020Z,4.92
2023-01-08T03:25:12.946Z,4.82
2023-01-08T03:26:13.296Z,4.78
2023-01-08T03:27:14.324Z,4.82
2023-01-08T03:28:14.545Z,4.78
2023-01-08T03:29:15.476Z,4.87
2023-01-08T03:30:16.452Z,4.78
2023-01-08T03:31:17.839Z,4.84
2023-01-08T03:32:17.501Z,4.84
2023-01-08T03:33:17.717Z,4.82
2023-01-08T03:34:18.174Z,4.83
2023-01-08T03:35:18.389Z,4.89
2023-01-08T03:36:19.347Z,4.82
2023-01-08T03:37:19.868Z,4.82
2023-01-08T03:38:19.783Z,4.82
2023-01-08T03:39:20.831Z,4.71
2023-01-08T03:40:22.098Z,4.66
2023-01-08T03:41:22.501Z,4.63
2023-01-08T03:42:23.270Z,4.63
2023-01-08T03:43:24.488Z,4.64
2023-01-08T03:44:24.710Z,4.63
2023-01-08T03:45:24.941Z,4.57
2023-01-08T03:46:25.620Z,4.56
2023-01-08T03:47:25.792Z,4.57
2023-01-08T03:48:26.001Z,4.5
2023-01-08T03:49:26.447Z,4.57
2023-01-08T03:50:26.717Z,4.6
2023-01-08T03:51:27.410Z,4.56
2023-01-08T03:52:27.900Z,4.57
2023-01-08T03:53:28.181Z,4.56
2023-01-08T03:54:28.208Z,4.56
2023-01-08T03:55:29.414Z,4.56
2023-01-08T03:56:30.326Z,4.64
2023-01-08T03:57:30.983Z,4.66
2023-01-08T03:58:30.922Z,4.64
2023-01-08T03:59:31.577Z,4.67
2023-01-08T04:00:32.508Z,4.7
2023-01-08T04:01:33.131Z,4.71
2023-01-08T04:02:33.473Z,4.71
2023-01-08T04:03:34.120Z,4.74
2023-01-08T04:04:35.221Z,4.67
2023-01-08T04:05:34.714Z,4.68
2023-01-08T04:06:35.086Z,4.74
2023-01-08T04:07:36.659Z,4.67
2023-01-08T04:08:36.869Z,4.68
2023-01-08T04:09:36.923Z,4.7
2023-01-08T04:10:37.431Z,4.74
2023-01-08T04:11:38.082Z,4.7
2023-01-08T04:12:38.408Z,4.68
2023-01-08T04:13:39.059Z,4.63
2023-01-08T04:14:39.285Z,4.66
2023-01-08T04:15:40.143Z,4.53
2023-01-08T04:16:41.432Z,4.61
2023-01-08T04:17:41.397Z,4.53
2023-01-08T04:18:42.338Z,4.48
2023-01-08T04:19:43.075Z,4.5
2023-01-08T04:20:43.262Z,4.38
2023-01-08T04:21:44.191Z,4.38
2023-01-08T04:22:44.812Z,4.42
2023-01-08T04:23:45.308Z,4.34
2023-01-08T04:24:45.705Z,4.27
2023-01-08T04:25:46.647Z,4.25
2023-01-08T04:26:47.149Z,4.27
2023-01-08T04:27:47.576Z,4.36
2023-01-08T04:28:47.954Z,4.38
2023-01-08T04:29:49.186Z,4.48
2023-01-08T04:30:49.253Z,4.42
2023-01-08T04:31:49.859Z,4.46
2023-01-08T04:32:50.074Z,4.45
2023-01-08T04:33:50.438Z,4.57
2023-01-08T04:34:51.180Z,4.56
2023-01-08T04:35:51.664Z,4.48
2023-01-08T04:36:51.852Z,4.5
2023-01-08T04:37:53.085Z,4.56
2023-01-08T04:38:53.699Z,4.53
2023-01-08T04:39:53.935Z,4.52
2023-01-08T04:40:54.563Z,4.6
2023-01-08T04:41:54.767Z,4.48
2023-01-08T04:42:54.939Z,4.52
2023-01-08T04:43:55.427Z,4.6
2023-01-08T04:44:56.067Z,4.43
2023-01-08T04:45:56.504Z,4.57
2023-01-08T04:46:57.293Z,4.6
2023-01-08T04:47:57.909Z,4.5
2023-01-08T04:48:58.844Z,4.49
2023-01-08T04:49:59.580Z,4.52
2023-01-08T04:50:59.817Z,4.53
2023-01-08T04:52:00.730Z,4.53
2023-01-08T04:53:00.660Z,4.56
2023-01-08T04:54:01.860Z,4.58
2023-01-08T04:55:02.215Z,4.5
2023-01-08T04:56:03.171Z,4.52
2023-01-08T04:57:04.079Z,4.5
2023-01-08T04:58:04.759Z,4.52
2023-01-08T04:59:05.406Z,4.53
2023-01-08T05:00:06.031Z,4.45
2023-01-08T05:01:07.034Z,4.48
2023-01-08T05:02:08.056Z,4.49
2023-01-08T05:03:08.286Z,4.49
2023-01-08T05:04:08.693Z,4.39
2023-01-08T05:05:09.851Z,4.38
2023-01-08T05:06:09.793Z,4.32
2023-01-08T05:07:10.421Z,4.27
2023-01-08T05:08:11.428Z,4.22
2023-01-08T05:09:11.644Z,4.25
2023-01-08T05:10:11.999Z,4.12
2023-01-08T05:11:13.246Z,4.18
2023-01-08T05:12:12.897Z,4.21
2023-01-08T05:13:14.529Z,4.27
2023-01-08T05:14:15.026Z,4.3
2023-01-08T05:15:14.942Z,4.36
2023-01-08T05:16:15.537Z,4.42
2023-01-08T05:17:16.063Z,4.48
2023-01-08T05:18:16.559Z,4.6
2023-01-08T05:19:17.050Z,4.56
2023-01-08T05:20:19.787Z,4.58
2023-01-08T05:21:18.015Z,4.71
2023-01-08T05:22:18.497Z,4.71
2023-01-08T05:23:18.436Z,4.67
2023-01-08T05:24:19.628Z,4.78
2023-01-08T05:25:20.236Z,4.83
2023-01-08T05:26:20.174Z,4.84
2023-01-08T05:27:21.526Z,4.83
2023-01-08T05:28:21.635Z,4.78
2023-01-08T05:29:22.560Z,4.84
2023-01-08T05:30:22.755Z,4.86
2023-01-08T05:31:24.200Z,4.87
2023-01-08T05:32:25.010Z,4.87
2023-01-08T05:33:25.511Z,4.87
2023-01-08T05:34:26.497Z,4.82
2023-01-08T05:35:26.710Z,4.97
2023-01-08T05:36:26.648Z,5.01
2023-01-08T05:37:27.559Z,5.01
2023-01-08T05:38:28.541Z,5.02
2023-01-08T05:39:29.740Z,5.04
2023-01-08T05:40:29.704Z,4.98
2023-01-08T05:41:30.194Z,5.02
2023-01-08T05:42:30.420Z,5.04
2023-01-08T05:43:31.034Z,5.05
2023-01-08T05:44:31.397Z,5.08
2023-01-08T05:45:32.598Z,5.04
2023-01-08T05:46:33.284Z,5.05
2023-01-08T05:47:33.795Z,5.05
2023-01-08T05:48:33.793Z,5.13
2023-01-08T05:49:35.009Z,5.13
2023-01-08T05:50:35.833Z,5.08
2023-01-08T05:51:35.509Z,5.15
2023-01-08T05:52:35.457Z,5.1
2023-01-08T05:53:36.668Z,5.19
2023-01-08T05:54:37.180Z,5.13
2023-01-08T05:55:37.809Z,5.08
2023-01-08T05:56:37.710Z,5.12
2023-01-08T05:57:38.625Z,5.1
2023-01-08T05:58:38.679Z,5.13
2023-01-08T05:59:39.296Z,5.02
2023-01-08T06:00:39.962Z,5.01
2023-01-08T06:01:40.845Z,5.07
2023-01-08T06:02:42.501Z,5.04
2023-01-08T06:03:43.101Z,5.1
2023-01-08T06:04:43.234Z,5.12
2023-01-08T06:05:44.684Z,5.05
2023-01-08T06:06:44.910Z,5.04
2023-01-08T06:07:45.118Z,5.05
2023-01-08T06:08:46.255Z,5.1
2023-01-08T06:09:46.487Z,5.04
2023-01-08T06:10:46.809Z,4.98
2023-01-08T06:11:47.722Z,4.98
2023-01-08T06:12:47.914Z,5.01
2023-01-08T06:13:48.250Z,5.01
2023-01-08T06:14:48.897Z,4.98
2023-01-08T06:15:50.011Z,5.08
2023-01-08T06:16:49.763Z,5.05
2023-01-08T06:17:51.128Z,4.92
2023-01-08T06:18:51.936Z,4.97
2023-01-08T06:19:51.864Z,4.87
2023-01-08T06:20:53.011Z,4.94
2023-01-08T06:21:53.215Z,4.89
2023-01-08T06:22:53.859Z,4.9
2023-01-08T06:23:54.517Z,4.92
2023-01-08T06:24:55.141Z,4.84
2023-01-08T06:25:56.191Z,4.79
2023-01-08T06:26:57.480Z,4.89
2023-01-08T06:27:57.501Z,4.89
2023-01-08T06:28:58.616Z,4.9
2023-01-08T06:29:59.281Z,4.84
2023-01-08T06:31:00.396Z,4.89
2023-01-08T06:32:00.299Z,4.82
2023-01-08T06:33:01.349Z,4.84
2023-01-08T06:34:02.020Z,4.83
2023-01-08T06:35:03.034Z,4.86
2023-01-08T06:36:03.697Z,4.86
2023-01-08T06:37:03.629Z,4.82
2023-01-08T06:38:04.841Z,4.79
2023-01-08T06:39:05.078Z,4.78
2023-01-08T06:40:05.570Z,4.87
2023-01-08T06:41:05.997Z,4.89
2023-01-08T06:42:06.442Z,4.84
2023-01-08T06:43:07.661Z,4.82
2023-01-08T06:44:07.402Z,4.79
2023-01-08T06:45:08.322Z,4.79
2023-01-08T06:46:09.813Z,4.83
2023-01-08T06:47:10.183Z,4.79
2023-01-08T06:48:11.267Z,4.86
2023-01-08T06:49:10.983Z,4.84
2023-01-08T06:50:11.464Z,4.82
2023-01-08T06:51:11.842Z,4.79
2023-01-08T06:52:12.532Z,4.83
2023-01-08T06:53:13.515Z,4.78
2023-01-08T06:54:14.424Z,4.7
2023-01-08T06:55:15.341Z,4.67
2023-01-08T06:56:15.660Z,4.7
2023-01-08T06:57:15.992Z,4.68
2023-01-08T06:58:16.664Z,4.67
2023-01-08T06:59:17.214Z,4.76
2023-01-08T07:00:17.740Z,4.67
2023-01-08T07:01:18.575Z,4.76
2023-01-08T07:02:19.271Z,4.78
2023-01-08T07:03:19.320Z,4.76
2023-01-08T07:04:19.755Z,4.78
2023-01-08T07:05:20.682Z,4.71
2023-01-08T07:06:22.042Z,4.71
2023-01-08T07:07:22.526Z,4.67
2023-01-08T07:08:23.155Z,4.67
2023-01-08T07:09:23.746Z,4.74
2023-01-08T07:10:26.222Z,4.67
2023-01-08T07:11:24.844Z,4.7
2023-01-08T07:12:24.759Z,4.74
2023-01-08T07:13:25.680Z,4.7
2023-01-08T07:14:26.013Z,4.67
2023-01-08T07:15:27.264Z,4.76
2023-01-08T07:16:27.726Z,4.74
2023-01-08T07:17:27.978Z,4.75
2023-01-08T07:18:29.023Z,4.74
2023-01-08T07:19:28.710Z,4.82
2023-01-08T07:20:29.711Z,4.78
2023-01-08T07:21:30.438Z,4.75
2023-01-08T07:22:30.729Z,4.79
2023-01-08T07:23:30.662Z,4.89
2023-01-08T07:24:31.615Z,4.87
2023-01-08T07:25:32.512Z,4.86
2023-01-08T07:26:33.134Z,4.86
2023-01-08T07:27:33.367Z,4.86
2023-01-08T07:28:34.591Z,4.9
2023-01-08T07:29:34.442Z,4.92
2023-01-08T07:30:36.397Z,4.92
2023-01-08T07:31:36.349Z,4.84
2023-01-08T07:32:36.385Z,4.87
2023-01-08T07:33:36.726Z,4.87
2023-01-08T07:34:37.114Z,4.95
2023-01-08T07:35:37.744Z,4.94
2023-01-08T07:36:38.524Z,4.78
2023-01-08T07:37:39.746Z,4.9
2023-01-08T07:38:40.368Z,4.76
2023-01-08T07:39:40.351Z,4.9
2023-01-08T07:40:45.141Z,4.75
2023-01-08T07:41:42.228Z,4.71
2023-01-08T07:42:42.184Z,4.66
2023-01-08T07:43:42.863Z,4.57
2023-01-08T07:44:44.179Z,4.57
2023-01-08T07:45:44.829Z,4.56
2023-01-08T07:46:45.992Z,4.43
2023-01-08T07:47:46.228Z,4.46
2023-01-08T07:48:47.560Z,4.52
2023-01-08T07:49:47.564Z,4.53
2023-01-08T07:50:48.212Z,4.49
2023-01-08T07:51:49.082Z,4.53
2023-01-08T07:52:49.289Z,4.48
2023-01-08T07:53:50.219Z,4.61
2023-01-08T07:54:50.433Z,4.53
2023-01-08T07:55:51.079Z,4.66
2023-01-08T07:56:52.417Z,4.68
2023-01-08T07:57:52.629Z,4.76
2023-01-08T07:58:53.850Z,4.78
2023-01-08T07:59:54.831Z,4.92
2023-01-08T08:00:55.061Z,4.94
2023-01-08T08:01:56.287Z,4.86
2023-01-08T08:02:56.991Z,5.02
2023-01-08T08:03:57.396Z,4.97
2023-01-08T08:04:57.652Z,5.05
2023-01-08T08:05:58.136Z,5.02
2023-01-08T08:06:58.574Z,5.15
2023-01-08T08:07:58.787Z,5.04
2023-01-08T08:08:59.007Z,5.05
2023-01-08T08:09:59.479Z,5.15
2023-01-08T08:10:59.994Z,5.18
2023-01-08T08:12:00.397Z,5.18
2023-01-08T08:13:00.608Z,5.15
2023-01-08T08:14:02.748Z,5.16
2023-01-08T08:15:02.101Z,5.2
2023-01-08T08:16:02.807Z,5.23
2023-01-08T08:17:03.508Z,5.26
2023-01-08T08:18:03.177Z,5.28
2023-01-08T08:19:04.512Z,5.33
2023-01-08T08:20:05.306Z,5.37
2023-01-08T08:21:05.226Z,5.38
2023-01-08T08:22:06.103Z,5.41
2023-01-08T08:23:06.427Z,5.43
2023-01-08T08:24:06.357Z,5.47
2023-01-08T08:25:06.585Z,5.44
2023-01-08T08:26:07.808Z,5.34
2023-01-08T08:27:08.160Z,5.43
2023-01-08T08:28:08.662Z,5.49
2023-01-08T08:29:09.293Z,5.52
2023-01-08T08:30:10.136Z,5.58
2023-01-08T08:31:11.688Z,5.58
2023-01-08T08:32:10.909Z,5.59
2023-01-08T08:33:12.144Z,5.67
2023-01-08T08:34:12.754Z,5.73
2023-01-08T08:35:13.107Z,5.7
2023-01-08T08:36:14.319Z,5.81
2023-01-08T08:37:14.986Z,5.83
2023-01-08T08:38:15.498Z,5.84
2023-01-08T08:39:15.890Z,5.83
2023-01-08T08:40:16.124Z,5.79
2023-01-08T08:41:17.462Z,5.87
2023-01-08T08:42:17.568Z,5.98
2023-01-08T08:43:18.773Z,5.99
2023-01-08T08:44:19.412Z,5.91
2023-01-08T08:45:20.740Z,5.92
2023-01-08T08:46:21.415Z,6.02
2023-01-08T08:47:21.526Z,6.02
2023-01-08T08:48:22.487Z,5.98
2023-01-08T08:49:23.807Z,6.1
2023-01-08T08:50:24.064Z,6.25
2023-01-08T08:51:23.759Z,6.22
2023-01-08T08:52:25.209Z,6.34
2023-01-08T08:53:27.907Z,6.39
2023-01-08T08:54:26.129Z,6.53
2023-01-08T08:55:25.764Z,6.64
2023-01-08T08:56:27.263Z,6.62
2023-01-08T08:57:27.338Z,6.74
2023-01-08T08:58:28.266Z,6.8
2023-01-08T08:59:29.505Z,6.82
2023-01-08T09:00:29.953Z,7.01
2023-01-08T09:01:31.395Z,6.96
2023-01-08T09:02:32.256Z,7.14
2023-01-08T09:03:32.430Z,7.14
2023-01-08T09:04:33.201Z,7.14
2023-01-08T09:05:33.424Z,7.23
2023-01-08T09:06:34.635Z,7.23
2023-01-08T09:07:35.081Z,7.22
2023-01-08T09:08:35.010Z,7.18
2023-01-08T09:09:35.272Z,7.15
2023-01-08T09:10:36.292Z,7.13
2023-01-08T09:11:36.500Z,7.15
2023-01-08T09:12:37.859Z,7.18
2023-01-08T09:13:38.097Z,7.19
2023-01-08T09:14:39.055Z,7.19
2023-01-08T09:15:39.008Z,7.19
2023-01-08T09:16:40.525Z,7.21
2023-01-08T09:17:40.917Z,7.1
2023-01-08T09:18:41.282Z,7.11
2023-01-08T09:19:42.506Z,7.23
2023-01-08T09:20:43.099Z,7.32
2023-01-08T09:21:43.470Z,7.43
2023-01-08T09:22:44.930Z,7.53
2023-01-08T09:23:44.548Z,7.61
2023-01-08T09:24:45.467Z,7.7
2023-01-08T09:25:45.683Z,7.7
2023-01-08T09:26:46.592Z,7.78
2023-01-08T09:27:47.930Z,7.77
2023-01-08T09:28:47.864Z,7.75
2023-01-08T09:29:48.229Z,7.83
2023-01-08T09:30:48.720Z,7.88
2023-01-08T09:31:50.246Z,7.93
2023-01-08T09:32:50.695Z,7.91
2023-01-08T09:33:50.874Z,8.09
2023-01-08T09:34:52.903Z,8.06
2023-01-08T09:35:53.094Z,8.17
2023-01-08T09:36:53.305Z,8.09
2023-01-08T09:37:53.467Z,8.18
2023-01-08T09:38:53.677Z,8.14
2023-01-08T09:40:03.490Z,8.23
2023-01-08T09:40:54.504Z,8.23
2023-01-08T09:41:55.048Z,8.31
2023-01-08T09:42:55.370Z,8.46
2023-01-08T09:43:55.587Z,8.54
2023-01-08T09:44:55.808Z,8.54
2023-01-08T09:45:56.438Z,8.6
2023-01-08T09:46:57.294Z,8.89
2023-01-08T09:47:56.824Z,8.9
2023-01-08T09:48:58.048Z,9.13
2023-01-08T09:49:58.776Z,9.11
2023-01-08T09:50:59.612Z,9.24
2023-01-08T09:51:59.973Z,9.34
2023-01-08T09:53:01.048Z,9.34
2023-01-08T09:54:01.983Z,9.48
2023-01-08T09:55:03.051Z,9.59
2023-01-08T09:56:15.406Z,9.73
2023-01-08T09:57:03.385Z,9.8
2023-01-08T09:58:04.725Z,10.03
2023-01-08T09:59:05.243Z,10.21
2023-01-08T10:00:05.740Z,10.43
2023-01-08T10:01:06.640Z,10.67
2023-01-08T10:02:07.108Z,10.9
2023-01-08T10:03:07.955Z,11.15
2023-01-08T10:04:08.450Z,11.37
2023-01-08T10:05:08.539Z,11.44
2023-01-08T10:06:09.192Z,11.56
2023-01-08T10:07:09.700Z,11.62
2023-01-08T10:08:10.147Z,11.85
2023-01-08T10:09:14.947Z,11.81
2023-01-08T10:10:11.161Z,11.86
2023-01-08T10:11:11.904Z,11.74
2023-01-08T10:12:12.839Z,11.65
2023-01-08T10:13:13.338Z,11.59
2023-01-08T10:14:14.574Z,11.43
2023-01-08T10:15:14.998Z,11.33
2023-01-08T10:16:16.473Z,11.18
2023-01-08T10:17:17.542Z,11.07
2023-01-08T10:18:17.475Z,10.92
2023-01-08T10:19:17.679Z,10.84
2023-01-08T10:20:17.918Z,10.89
2023-01-08T10:21:19.178Z,10.87
2023-01-08T10:22:19.673Z,10.83
2023-01-08T10:23:20.428Z,10.9
2023-01-08T10:24:20.923Z,11.1
2023-01-08T10:25:21.469Z,11.35
2023-01-08T10:26:21.661Z,11.51
2023-01-08T10:27:21.862Z,11.83
2023-01-08T10:28:22.624Z,11.97
2023-01-08T10:29:23.161Z,12
2023-01-08T10:30:23.096Z,12.08
2023-01-08T10:31:24.462Z,12.03
2023-01-08T10:32:24.474Z,12.07
2023-01-08T10:33:24.700Z,11.99
2023-01-08T10:34:24.913Z,11.86
2023-01-08T10:35:25.135Z,11.71
2023-01-08T10:36:25.382Z,11.6
2023-01-08T10:37:25.607Z,11.51
2023-01-08T10:38:25.999Z,11.4
2023-01-08T10:39:25.906Z,11.43
2023-01-08T10:40:27.183Z,11.38
2023-01-08T10:41:27.694Z,11.38
2023-01-08T10:42:27.912Z,11.41
2023-01-08T10:43:28.154Z,11.31
2023-01-08T10:44:28.376Z,11.31
2023-01-08T10:45:29.515Z,11.22
2023-01-08T10:46:29.903Z,11.16
2023-01-08T10:47:30.141Z,11.07
2023-01-08T10:48:30.692Z,11.01
2023-01-08T10:49:30.906Z,10.83
2023-01-08T10:50:31.310Z,10.82
2023-01-08T10:51:32.340Z,10.79
2023-01-08T10:52:33.256Z,10.67
2023-01-08T10:53:33.957Z,10.62
2023-01-08T10:54:34.883Z,10.71
2023-01-08T10:55:34.822Z,10.61
2023-01-08T10:56:35.754Z,10.61
2023-01-08T10:57:36.677Z,10.59
2023-01-08T10:58:36.904Z,10.51
2023-01-08T10:59:38.187Z,10.49
2023-01-08T11:00:38.224Z,10.45
2023-01-08T11:01:39.396Z,10.46
2023-01-08T11:02:43.975Z,10.46
2023-01-08T11:03:40.677Z,10.38
2023-01-08T11:04:40.902Z,10.38
2023-01-08T11:05:41.605Z,10.39
2023-01-08T11:06:42.817Z,10.39
2023-01-08T11:07:43.311Z,10.28
2023-01-08T11:08:43.670Z,10.21
2023-01-08T11:09:44.021Z,10.24
2023-01-08T11:10:44.235Z,10.27
2023-01-08T11:11:45.254Z,10.27
2023-01-08T11:12:45.191Z,10.15
2023-01-08T11:13:45.424Z,10.13
2023-01-08T11:14:46.346Z,10.09
2023-01-08T11:15:47.694Z,10.07
2023-01-08T11:16:47.801Z,10.06
2023-01-08T11:17:48.719Z,9.97
2023-01-08T11:18:48.784Z,9.94
2023-01-08T11:19:49.725Z,9.94
2023-01-08T11:20:49.841Z,9.91
2023-01-08T11:21:50.195Z,9.85
2023-01-08T11:22:50.839Z,9.81
2023-01-08T11:23:51.935Z,9.7
2023-01-08T11:24:53.142Z,9.63
2023-01-08T11:25:53.062Z,9.62
2023-01-08T11:26:53.987Z,9.63
2023-01-08T11:27:55.199Z,9.54
2023-01-08T11:28:55.157Z,9.45
2023-01-08T11:29:55.391Z,9.45
2023-01-08T11:30:55.936Z,9.39
2023-01-08T11:31:56.311Z,9.42
2023-01-08T11:32:56.550Z,9.44
2023-01-08T11:33:57.058Z,9.49
2023-01-08T11:34:57.993Z,9.45
2023-01-08T11:35:58.232Z,9.48
2023-01-08T11:36:58.173Z,9.58
2023-01-08T11:37:58.659Z,9.51
2023-01-08T11:38:58.732Z,9.49
2023-01-08T11:39:59.928Z,9.45
2023-01-08T11:41:00.460Z,9.52
2023-01-08T11:42:00.793Z,9.45
2023-01-08T11:43:01.431Z,9.34
2023-01-08T11:44:01.694Z,9.34
2023-01-08T11:45:15.064Z,9.36
2023-01-08T11:46:03.203Z,9.42
2023-01-08T11:47:03.204Z,9.39
2023-01-08T11:48:03.416Z,9.39
2023-01-08T11:49:04.267Z,9.4
2023-01-08T11:50:04.235Z,9.39
2023-01-08T11:51:05.221Z,9.34
2023-01-08T11:52:05.973Z,9.34
2023-01-08T11:53:07.195Z,9.39
2023-01-08T11:54:07.176Z,9.33
2023-01-08T11:55:08.355Z,9.29
2023-01-08T11:56:09.291Z,9.22
2023-01-08T11:57:09.977Z,9.3
2023-01-08T11:58:10.880Z,9.24
2023-01-08T11:59:11.931Z,9.33
2023-01-08T12:00:14.738Z,9.3
2023-01-08T12:01:12.968Z,9.29
2023-01-08T12:02:13.943Z,9.3
2023-01-08T12:03:14.499Z,9.26
2023-01-08T12:04:15.035Z,9.3
2023-01-08T12:05:16.227Z,9.3
2023-01-08T12:06:16.460Z,9.33
2023-01-08T12:07:16.665Z,9.21
2023-01-08T12:08:16.609Z,9.3
2023-01-08T12:09:17.852Z,9.3
2023-01-08T12:10:18.043Z,9.27
2023-01-08T12:11:18.692Z,9.26
2023-01-08T12:12:20.808Z,9.24
2023-01-08T12:13:20.304Z,9.24
2023-01-08T12:14:20.833Z,9.18
2023-01-08T12:15:21.064Z,9.21
2023-01-08T12:16:21.791Z,9.21
2023-01-08T12:17:24.982Z,9.09
2023-01-08T12:18:22.507Z,9.11
2023-01-08T12:19:22.443Z,9.08
2023-01-08T12:20:23.484Z,9.09
2023-01-08T12:21:24.438Z,9.03
2023-01-08T12:22:24.776Z,9.05
2023-01-08T12:23:25.263Z,9.11
2023-01-08T12:24:25.824Z,9.05
2023-01-08T12:25:26.051Z,8.97
2023-01-08T12:26:26.279Z,9
2023-01-08T12:27:57.365Z,9.02
2023-01-08T12:28:26.747Z,8.97
2023-01-08T12:29:27.359Z,9.08
2023-01-08T12:30:27.087Z,8.95
2023-01-08T12:31:28.731Z,8.84
2023-01-08T12:32:28.983Z,8.79
2023-01-08T12:33:30.209Z,8.81
2023-01-08T12:34:30.569Z,8.79
2023-01-08T12:35:31.221Z,8.89
2023-01-08T12:36:32.506Z,8.75
2023-01-08T12:37:32.442Z,8.86
2023-01-08T12:38:33.644Z,8.82
2023-01-08T12:39:33.963Z,8.75
2023-01-08T12:40:34.459Z,8.82
2023-01-08T12:41:34.956Z,8.84
2023-01-08T12:42:34.747Z,8.79
2023-01-08T12:43:35.671Z,8.81
2023-01-08T12:44:35.895Z,8.89
2023-01-08T12:45:37.121Z,8.82
2023-01-08T12:46:37.903Z,8.77
2023-01-08T12:47:37.881Z,8.75
2023-01-08T12:48:39.377Z,8.75
2023-01-08T12:49:40.246Z,8.82
2023-01-08T12:50:40.519Z,8.82
2023-01-08T12:51:41.076Z,8.95
2023-01-08T12:52:41.106Z,9.08
2023-01-08T12:53:42.044Z,9.05
2023-01-08T12:54:42.305Z,9.02
2023-01-08T12:55:43.539Z,9
2023-01-08T12:56:43.458Z,8.99
2023-01-08T12:57:44.137Z,9
2023-01-08T12:58:44.068Z,9.02
2023-01-08T12:59:45.343Z,9.02
2023-01-08T13:00:46.605Z,9.08
2023-01-08T13:01:48.628Z,9.05
2023-01-08T13:02:47.565Z,9
2023-01-08T13:03:49.663Z,8.97
2023-01-08T13:04:48.586Z,9.02
2023-01-08T13:05:49.237Z,9
2023-01-08T13:06:49.447Z,9.08
2023-01-08T13:07:49.970Z,8.96
2023-01-08T13:08:50.462Z,9
2023-01-08T13:09:51.251Z,8.9
2023-01-08T13:10:52.218Z,8.93
2023-01-08T13:11:52.419Z,8.97
2023-01-08T13:12:53.453Z,9.13
2023-01-08T13:13:54.377Z,8.99
2023-01-08T13:14:54.884Z,9.13
2023-01-08T13:15:55.521Z,9.13
2023-01-08T13:16:56.744Z,9.24
2023-01-08T13:17:57.300Z,9.26
2023-01-08T13:18:57.659Z,9.3
2023-01-08T13:19:58.861Z,9.45
2023-01-08T13:20:59.362Z,9.39
2023-01-08T13:21:59.655Z,9.34
2023-01-08T13:23:00.117Z,9.48
2023-01-08T13:24:00.082Z,9.47
2023-01-08T13:25:02.548Z,9.52
2023-01-08T13:26:01.188Z,9.52
2023-01-08T13:27:02.441Z,9.54